Startpagina
METAR-TAF:

METAR-TAF

Vliegvelden :

Troyes, Frankrijk

breedte: 48-20N, lengte: 004-01E, hoogte: 118 m

Actueel weer

Dit bericht is 24 minuten geleden gemaakt, om 20:30 UTC
Wind 16 kt uit het zuidwesten
Temperatuur 12°C
Vochtigheid 88%
Druk 1026 hPa
Zicht 10 km of meer
Gebroken wolken op 1600 ft
Geheel bewolkt op 2400 ft

METAR: LFQB 232030Z AUTO 23016KT 9999 BKN016 OVC024 12/10 Q1026

Tijdstip: 21:54 (20:54 UTC)


TAF: ontbreekt

Waarnemingen en weersverwachtingen van meer dan 4000 vliegvelden (METAR en TAF).

De beschikbare stations zijn de gele en rode punten op de kaart.

Ga met uw muis naar het station om de naam te zien.

Klik dan om waarnemingen en weersverwachtingen te zien.

kaart wijzigen: klik op de groene knoppen met een zwart kruis om in te zoomen, op de groene knop met een streepje om uit te zoomen of op de groene pijlen voor aangrenzende kaarten.


METAR-TAF: